Time;durP1;ratioP1;P1;durP2;ratioP2;P2;SDS_P1;SDS_P2;PMS_P1;PMS_P2;Temp;Humidity;BMP_temperature;BMP_pressure;BME280_temperature;BME280_humidity;BME280_pressure;Samples;Min_cycle;Max_cycle;Signal;HPM_P1;HPM_P2
2023/12/03 00:02:14;;;;;;;14.45;10.32;;;3.80;64.00;;;;;;5088850;28;20196;-63
2023/12/03 00:04:42;;;;;;;14.18;10.90;;;3.70;63.80;;;;;;5077629;28;20217;-62
2023/12/03 00:07:09;;;;;;;12.80;10.13;;;3.70;63.70;;;;;;5088950;28;20196;-64
2023/12/03 00:09:37;;;;;;;16.25;11.13;;;3.70;63.60;;;;;;5089959;28;20652;-64
2023/12/03 00:12:05;;;;;;;13.25;10.23;;;3.70;63.90;;;;;;5089580;28;20315;-62
2023/12/03 00:14:32;;;;;;;13.15;10.88;;;3.70;63.90;;;;;;5078117;28;20260;-63
2023/12/03 00:16:59;;;;;;;14.70;10.23;;;3.70;63.70;;;;;;5070587;28;20650;-62
2023/12/03 00:19:27;;;;;;;14.23;10.60;;;3.70;63.80;;;;;;5069959;28;20209;-64
2023/12/03 00:21:54;;;;;;;17.48;11.40;;;3.60;63.70;;;;;;5065005;28;20194;-63
2023/12/03 00:24:21;;;;;;;14.40;10.98;;;3.60;64.40;;;;;;5078463;28;20194;-63
2023/12/03 00:26:48;;;;;;;15.90;11.52;;;3.70;64.60;;;;;;5079300;28;20207;-63
2023/12/03 00:29:17;;;;;;;16.33;11.25;;;3.80;64.30;;;;;;5069569;28;20269;-62
2023/12/03 00:31:44;;;;;;;17.00;11.27;;;3.70;64.70;;;;;;5083409;28;20219;-62
2023/12/03 00:34:10;;;;;;;15.82;11.18;;;3.70;64.90;;;;;;5087673;28;20247;-63
2023/12/03 00:36:39;;;;;;;15.23;11.07;;;3.70;65.40;;;;;;5088998;28;20203;-64
2023/12/03 00:39:07;;;;;;;14.88;11.30;;;3.80;65.60;;;;;;5084923;28;20203;-63
2023/12/03 00:41:34;;;;;;;14.35;10.70;;;3.80;65.70;;;;;;5089083;28;20219;-64
2023/12/03 00:44:01;;;;;;;17.38;11.38;;;3.80;65.20;;;;;;5086612;28;20215;-63
2023/12/03 00:46:28;;;;;;;14.85;10.85;;;3.80;65.50;;;;;;5069465;28;20584;-64
2023/12/03 00:48:55;;;;;;;15.18;11.27;;;3.80;65.70;;;;;;5068997;28;20217;-64
2023/12/03 00:51:22;;;;;;;17.23;11.40;;;3.90;65.80;;;;;;5079540;28;20291;-64
2023/12/03 00:53:50;;;;;;;14.25;11.13;;;3.90;65.60;;;;;;5065124;28;20193;-64
2023/12/03 00:56:17;;;;;;;15.15;11.38;;;4.00;65.80;;;;;;5069798;28;20201;-62
2023/12/03 00:58:44;;;;;;;15.02;11.48;;;3.90;65.80;;;;;;5068938;28;20208;-64
2023/12/03 01:01:11;;;;;;;17.25;12.63;;;3.90;65.90;;;;;;5068610;28;20204;-63
2023/12/03 01:03:38;;;;;;;17.95;12.10;;;3.90;66.20;;;;;;5077603;28;20567;-63
2023/12/03 01:06:06;;;;;;;14.70;11.70;;;3.90;66.50;;;;;;5073631;28;20444;-62
2023/12/03 01:08:32;;;;;;;16.20;11.35;;;3.90;66.30;;;;;;5088922;28;20367;-62
2023/12/03 01:11:04;;;;;;;14.95;11.90;;;3.90;66.50;;;;;;5088309;28;20208;-63
2023/12/03 01:13:31;;;;;;;16.02;11.30;;;3.90;66.80;;;;;;5087048;28;20215;-62
2023/12/03 01:15:58;;;;;;;17.35;11.85;;;3.90;66.50;;;;;;5087830;28;20204;-63
2023/12/03 01:18:28;;;;;;;15.43;11.68;;;3.90;66.70;;;;;;5088792;28;20197;-63
2023/12/03 01:20:55;;;;;;;15.02;11.02;;;3.90;67.20;;;;;;5073421;28;20292;-63
2023/12/03 01:23:22;;;;;;;16.80;11.85;;;3.90;67.30;;;;;;5051641;28;20292;-63
2023/12/03 01:25:49;;;;;;;17.48;12.63;;;3.80;67.10;;;;;;5083550;28;20196;-64
2023/12/03 01:28:20;;;;;;;15.23;11.68;;;3.80;67.30;;;;;;5090408;28;20212;-64
2023/12/03 01:30:47;;;;;;;15.20;11.20;;;3.90;67.40;;;;;;5090884;28;20224;-64
2023/12/03 01:33:14;;;;;;;16.00;10.90;;;3.90;66.70;;;;;;5073646;28;20197;-64
2023/12/03 01:35:40;;;;;;;15.35;11.35;;;4.00;67.00;;;;;;5073500;28;20197;-62
2023/12/03 01:38:07;;;;;;;18.05;12.23;;;3.90;66.20;;;;;;5088757;28;20203;-63
2023/12/03 01:40:34;;;;;;;17.42;12.63;;;3.90;66.40;;;;;;5091649;28;20232;-63
2023/12/03 01:43:01;;;;;;;14.63;11.38;;;3.90;66.30;;;;;;5076531;28;20208;-62
2023/12/03 01:45:30;;;;;;;16.00;11.57;;;3.90;66.00;;;;;;5091188;28;20222;-62
2023/12/03 01:47:58;;;;;;;16.50;11.95;;;3.90;66.20;;;;;;5092574;28;20235;-63
2023/12/03 01:50:27;;;;;;;16.58;11.60;;;4.00;66.10;;;;;;5088411;28;20201;-62
2023/12/03 01:52:54;;;;;;;16.15;11.98;;;4.00;66.00;;;;;;5079806;28;20208;-62
2023/12/03 01:55:22;;;;;;;17.60;11.82;;;4.00;65.80;;;;;;5072505;28;20200;-62
2023/12/03 01:57:49;;;;;;;18.15;12.88;;;4.00;65.80;;;;;;5092210;28;20223;-63
2023/12/03 02:00:17;;;;;;;14.52;11.85;;;3.90;66.40;;;;;;5090199;28;20201;-64
2023/12/03 02:02:45;;;;;;;17.60;12.38;;;3.90;65.90;;;;;;5081743;28;20303;-62
2023/12/03 02:05:12;;;;;;;17.90;11.57;;;3.90;65.50;;;;;;5090245;28;20203;-63
2023/12/03 02:07:39;;;;;;;15.43;11.50;;;3.90;65.60;;;;;;5091565;28;20200;-64
2023/12/03 02:10:07;;;;;;;16.40;11.95;;;4.00;65.50;;;;;;5092129;28;20209;-63
2023/12/03 02:12:34;;;;;;;17.13;11.82;;;3.90;65.50;;;;;;5078726;28;20201;-64
2023/12/03 02:15:01;;;;;;;15.93;11.60;;;3.90;65.50;;;;;;5072634;28;20225;-63
2023/12/03 02:17:28;;;;;;;16.85;12.20;;;3.90;65.70;;;;;;5063550;28;20567;-63
2023/12/03 02:19:57;;;;;;;16.00;11.55;;;3.90;65.90;;;;;;5060085;28;20281;-63
2023/12/03 02:22:24;;;;;;;18.63;13.25;;;3.80;65.60;;;;;;5072320;28;20214;-63
2023/12/03 02:24:52;;;;;;;17.63;12.10;;;3.80;65.70;;;;;;5060086;28;20207;-63
2023/12/03 02:27:19;;;;;;;17.02;11.95;;;3.80;66.00;;;;;;5074935;28;20202;-64
2023/12/03 02:29:48;;;;;;;18.15;12.23;;;3.80;65.50;;;;;;5071513;28;20586;-63
2023/12/03 02:32:14;;;;;;;17.88;12.40;;;3.70;65.50;;;;;;5074485;28;20201;-64
2023/12/03 02:34:41;;;;;;;19.15;13.43;;;3.80;66.20;;;;;;5091031;28;20202;-63
2023/12/03 02:37:09;;;;;;;18.63;13.43;;;3.80;66.20;;;;;;5089282;28;20196;-64
2023/12/03 02:39:36;;;;;;;19.02;13.85;;;3.80;66.20;;;;;;5050270;28;20225;-63
2023/12/03 02:42:05;;;;;;;18.48;12.80;;;3.90;66.00;;;;;;5076666;28;20806;-63
2023/12/03 02:44:33;;;;;;;17.65;12.75;;;3.90;65.70;;;;;;5091155;28;20288;-64
2023/12/03 02:47:00;;;;;;;17.85;13.13;;;3.90;65.60;;;;;;5091147;28;20203;-63
2023/12/03 02:49:27;;;;;;;19.00;13.00;;;3.80;65.80;;;;;;5088044;28;20622;-63
2023/12/03 02:51:54;;;;;;;19.30;13.38;;;3.80;65.80;;;;;;5072543;28;20216;-62
2023/12/03 02:54:21;;;;;;;18.92;13.57;;;3.80;65.90;;;;;;5091781;28;20206;-64
2023/12/03 02:56:47;;;;;;;18.95;13.80;;;3.70;66.10;;;;;;5079126;28;20587;-63
2023/12/03 02:59:15;;;;;;;17.90;12.98;;;3.70;65.80;;;;;;5084657;28;20200;-64
2023/12/03 03:01:43;;;;;;;16.63;13.02;;;3.70;66.10;;;;;;5086351;28;20719;-63
2023/12/03 03:04:09;;;;;;;19.70;13.85;;;3.70;66.00;;;;;;5075560;28;20564;-64
2023/12/03 03:06:36;;;;;;;19.77;14.00;;;3.70;65.90;;;;;;5092429;28;20201;-64
2023/12/03 03:09:03;;;;;;;18.20;13.30;;;3.60;65.60;;;;;;5091330;28;20223;-64
2023/12/03 03:11:30;;;;;;;18.90;13.02;;;3.50;65.50;;;;;;5073809;28;20687;-64
2023/12/03 03:13:57;;;;;;;21.73;14.60;;;3.50;65.40;;;;;;5079267;28;20197;-63
2023/12/03 03:16:26;;;;;;;19.30;13.15;;;3.50;65.80;;;;;;5088665;28;20236;-64
2023/12/03 03:18:54;;;;;;;21.33;15.02;;;3.50;65.70;;;;;;5072112;28;20669;-63
2023/12/03 03:21:21;;;;;;;19.85;13.50;;;3.50;65.60;;;;;;5079335;28;20207;-63
2023/12/03 03:23:48;;;;;;;21.10;13.63;;;3.60;65.30;;;;;;5072085;28;20252;-63
2023/12/03 03:26:15;;;;;;;24.02;14.80;;;3.50;65.80;;;;;;5075937;28;20283;-63
2023/12/03 03:28:42;;;;;;;21.63;14.60;;;3.50;65.10;;;;;;5088976;28;20226;-63
2023/12/03 03:31:08;;;;;;;22.75;14.65;;;3.50;65.40;;;;;;5083565;28;20201;-63
2023/12/03 03:33:37;;;;;;;21.30;14.55;;;3.40;65.20;;;;;;5071728;28;20209;-62
2023/12/03 03:36:04;;;;;;;20.38;14.20;;;3.40;65.10;;;;;;5081126;28;20200;-63
2023/12/03 03:38:31;;;;;;;22.30;13.88;;;3.40;65.30;;;;;;5080326;28;20221;-63
2023/12/03 03:40:58;;;;;;;24.77;14.90;;;3.50;65.20;;;;;;5076878;28;20695;-62
2023/12/03 03:43:25;;;;;;;21.48;14.43;;;3.40;65.00;;;;;;5091850;28;20250;-63
2023/12/03 03:45:53;;;;;;;20.63;14.40;;;3.40;65.00;;;;;;5087098;28;20221;-62
2023/12/03 03:48:19;;;;;;;20.27;13.70;;;3.40;65.00;;;;;;5090056;28;20536;-64
2023/12/03 03:50:48;;;;;;;20.30;14.15;;;3.50;64.80;;;;;;5075069;28;20284;-63
2023/12/03 03:53:15;;;;;;;22.23;15.27;;;3.40;64.80;;;;;;5074593;28;20225;-62
2023/12/03 03:55:42;;;;;;;22.00;14.55;;;3.40;65.00;;;;;;5072037;28;20197;-62
2023/12/03 03:58:09;;;;;;;21.08;14.30;;;3.40;65.10;;;;;;5071529;28;20202;-65
2023/12/03 04:00:35;;;;;;;22.63;14.93;;;3.40;65.30;;;;;;5084979;28;20228;-64
2023/12/03 04:03:02;;;;;;;19.55;13.85;;;3.40;65.50;;;;;;5074808;28;20197;-64
2023/12/03 04:05:29;;;;;;;20.92;13.98;;;3.40;65.70;;;;;;5071291;28;20628;-63
2023/12/03 04:07:57;;;;;;;22.48;14.85;;;3.40;65.50;;;;;;5078823;28;20220;-63
2023/12/03 04:10:24;;;;;;;22.63;15.02;;;3.40;65.50;;;;;;5078348;28;20235;-63
2023/12/03 04:12:51;;;;;;;23.33;14.40;;;3.40;65.80;;;;;;5071648;28;20225;-62
2023/12/03 04:15:18;;;;;;;22.35;14.25;;;3.40;65.80;;;;;;5090181;28;20226;-63
2023/12/03 04:17:45;;;;;;;22.55;14.65;;;3.40;65.90;;;;;;5090748;28;20211;-63
2023/12/03 04:20:13;;;;;;;21.98;14.13;;;3.30;66.00;;;;;;5087198;28;20199;-63
2023/12/03 04:22:40;;;;;;;18.85;13.35;;;3.30;66.00;;;;;;5079411;28;20217;-63
2023/12/03 04:25:09;;;;;;;20.90;13.77;;;3.30;66.10;;;;;;5071009;28;20201;-63
2023/12/03 04:27:37;;;;;;;19.05;13.18;;;3.30;66.40;;;;;;5071899;28;20569;-63
2023/12/03 04:30:04;;;;;;;19.45;12.88;;;3.30;66.60;;;;;;5071208;28;20225;-63
2023/12/03 04:32:31;;;;;;;20.02;14.35;;;3.30;66.70;;;;;;5072294;28;20193;-63
2023/12/03 04:34:58;;;;;;;18.20;13.52;;;3.30;66.80;;;;;;5090452;28;20211;-63
2023/12/03 04:37:25;;;;;;;19.75;13.75;;;3.30;66.80;;;;;;5088486;28;20296;-62
2023/12/03 04:39:51;;;;;;;20.98;13.80;;;3.20;66.70;;;;;;5086609;28;20209;-63
2023/12/03 04:42:20;;;;;;;21.50;13.88;;;3.20;66.70;;;;;;5088762;28;20224;-62
2023/12/03 04:44:46;;;;;;;19.95;13.68;;;3.20;67.00;;;;;;5076539;28;20203;-63
2023/12/03 04:47:13;;;;;;;19.38;13.48;;;3.20;67.20;;;;;;5091366;28;20212;-63
2023/12/03 04:49:40;;;;;;;18.88;13.18;;;3.20;67.50;;;;;;5086216;28;20229;-63
2023/12/03 04:52:07;;;;;;;19.58;13.65;;;3.20;67.60;;;;;;5089536;28;20200;-62
2023/12/03 04:54:34;;;;;;;19.55;13.95;;;3.10;67.50;;;;;;5074766;28;20200;-62
2023/12/03 04:57:01;;;;;;;19.38;13.75;;;3.10;67.30;;;;;;5091597;28;20229;-63
2023/12/03 04:59:29;;;;;;;20.05;13.13;;;3.10;67.30;;;;;;5091160;28;20207;-63
2023/12/03 05:01:55;;;;;;;23.40;13.30;;;3.10;67.30;;;;;;5086757;28;20657;-64
2023/12/03 05:04:23;;;;;;;20.98;13.73;;;3.10;67.50;;;;;;5073665;28;20229;-63
2023/12/03 05:06:50;;;;;;;19.00;12.68;;;3.10;67.50;;;;;;5091738;28;20208;-63
2023/12/03 05:09:17;;;;;;;20.42;13.48;;;3.00;67.40;;;;;;5082320;28;20221;-63
2023/12/03 05:11:44;;;;;;;21.55;13.65;;;3.00;67.40;;;;;;5083395;28;20303;-64
2023/12/03 05:14:11;;;;;;;23.05;12.75;;;2.90;67.40;;;;;;5073974;28;20658;-64
2023/12/03 05:16:42;;;;;;;18.75;13.13;;;2.90;67.50;;;;;;5087315;28;20196;-64
2023/12/03 05:19:09;;;;;;;20.33;12.95;;;2.90;67.60;;;;;;5091475;28;20311;-62
2023/12/03 05:21:35;;;;;;;20.42;13.15;;;2.80;67.70;;;;;;5088899;28;20200;-63
2023/12/03 05:24:02;;;;;;;19.10;12.93;;;2.80;67.90;;;;;;5071721;28;20229;-63
2023/12/03 05:26:29;;;;;;;19.17;13.30;;;2.70;68.60;;;;;;5077456;28;20200;-63
2023/12/03 05:28:56;;;;;;;19.52;12.45;;;2.70;68.10;;;;;;5081732;28;20221;-63
2023/12/03 05:31:22;;;;;;;20.50;13.07;;;2.60;68.20;;;;;;5035378;28;20698;-64
2023/12/03 05:33:51;;;;;;;21.23;13.48;;;2.70;68.30;;;;;;5080410;28;20231;-63
2023/12/03 05:36:22;;;;;;;19.35;12.68;;;2.70;68.30;;;;;;5087477;28;20686;-63
2023/12/03 05:38:50;;;;;;;22.35;14.82;;;2.70;68.30;;;;;;5081336;28;20233;-63
2023/12/03 05:41:17;;;;;;;18.60;12.52;;;2.60;68.30;;;;;;5071335;28;20653;-64
2023/12/03 05:43:44;;;;;;;21.85;13.85;;;2.60;68.30;;;;;;5071441;28;20658;-63
2023/12/03 05:46:10;;;;;;;19.83;13.07;;;2.60;69.10;;;;;;5073769;28;20224;-63
2023/12/03 05:48:37;;;;;;;19.33;13.40;;;2.60;68.40;;;;;;5091625;28;20579;-64
2023/12/03 05:51:10;;;;;;;19.95;13.15;;;2.60;68.30;;;;;;5082993;28;20244;-63
2023/12/03 05:53:37;;;;;;;19.00;12.73;;;2.60;68.40;;;;;;5086289;28;20236;-63
2023/12/03 05:56:04;;;;;;;21.67;12.65;;;2.60;69.20;;;;;;5089309;28;20213;-63
2023/12/03 05:58:31;;;;;;;19.50;13.23;;;2.60;68.50;;;;;;5071336;28;20247;-63
2023/12/03 06:00:58;;;;;;;19.42;13.40;;;2.60;68.40;;;;;;5070978;28;20206;-64
2023/12/03 06:03:24;;;;;;;18.85;12.63;;;2.60;68.30;;;;;;5071205;28;20202;-63
2023/12/03 06:05:51;;;;;;;22.08;13.23;;;2.60;68.40;;;;;;5081667;28;20225;-63
2023/12/03 06:08:19;;;;;;;19.17;12.98;;;2.60;68.30;;;;;;5080940;28;20201;-63
2023/12/03 06:10:46;;;;;;;18.67;12.90;;;2.50;69.20;;;;;;5074228;28;20229;-63
2023/12/03 06:13:13;;;;;;;18.65;12.82;;;2.50;68.60;;;;;;5091434;28;20223;-63
2023/12/03 06:15:40;;;;;;;17.60;11.60;;;2.50;68.60;;;;;;5094681;28;20572;-63
2023/12/03 06:18:08;;;;;;;17.95;12.43;;;2.50;68.50;;;;;;5094766;28;20201;-63
2023/12/03 06:20:35;;;;;;;19.92;12.45;;;2.50;68.60;;;;;;5080097;28;20292;-64
2023/12/03 06:23:01;;;;;;;19.95;13.07;;;2.50;68.60;;;;;;5088490;28;20307;-63
2023/12/03 06:25:30;;;;;;;17.20;12.23;;;2.40;68.60;;;;;;5092667;28;20200;-63
2023/12/03 06:27:56;;;;;;;17.40;12.23;;;2.40;68.70;;;;;;5090325;28;20228;-63
2023/12/03 06:30:23;;;;;;;18.55;12.98;;;2.40;68.80;;;;;;5082142;28;20217;-64
2023/12/03 06:32:50;;;;;;;17.10;11.77;;;2.40;68.80;;;;;;5084647;28;20197;-63
2023/12/03 06:35:18;;;;;;;19.52;12.52;;;2.40;68.90;;;;;;5093958;28;20201;-64
2023/12/03 06:37:45;;;;;;;18.58;12.13;;;2.40;69.00;;;;;;5091942;28;20208;-63
2023/12/03 06:40:14;;;;;;;21.88;12.45;;;2.40;69.10;;;;;;5077180;28;20221;-64
2023/12/03 06:42:42;;;;;;;18.00;12.13;;;2.40;69.20;;;;;;5087188;28;20201;-64
2023/12/03 06:45:10;;;;;;;18.23;12.32;;;2.40;69.20;;;;;;5073385;28;20229;-64
2023/12/03 06:47:36;;;;;;;20.10;11.80;;;2.40;69.30;;;;;;5075097;28;20204;-64
2023/12/03 06:50:04;;;;;;;20.50;12.77;;;2.30;69.50;;;;;;5074015;28;20251;-63
2023/12/03 06:52:30;;;;;;;18.48;12.50;;;2.20;69.70;;;;;;5088628;28;20197;-64
2023/12/03 06:54:57;;;;;;;18.92;12.38;;;2.20;69.80;;;;;;5091199;28;20201;-63
2023/12/03 06:57:24;;;;;;;18.92;11.52;;;2.20;69.80;;;;;;5077419;28;20235;-63
2023/12/03 06:59:53;;;;;;;16.42;12.43;;;2.30;69.80;;;;;;5073535;28;20570;-63
2023/12/03 07:02:20;;;;;;;17.63;11.35;;;2.30;69.70;;;;;;5078583;28;20228;-64
2023/12/03 07:04:46;;;;;;;16.52;11.65;;;2.30;69.70;;;;;;5074826;28;20198;-63
2023/12/03 07:07:13;;;;;;;18.27;11.65;;;2.30;69.60;;;;;;5073769;28;20197;-63
2023/12/03 07:09:40;;;;;;;17.25;11.90;;;2.30;69.60;;;;;;5092980;28;20227;-63
2023/12/03 07:12:07;;;;;;;17.20;11.52;;;2.30;69.60;;;;;;5090397;28;20204;-64
2023/12/03 07:14:34;;;;;;;18.83;12.15;;;2.30;69.50;;;;;;5073888;28;20341;-65
2023/12/03 07:17:03;;;;;;;17.45;11.68;;;2.30;69.50;;;;;;5089292;28;20224;-64
2023/12/03 07:19:30;;;;;;;19.33;11.88;;;2.30;69.50;;;;;;5074853;28;20416;-63
2023/12/03 07:21:57;;;;;;;17.27;12.05;;;2.30;69.50;;;;;;5071732;28;20215;-64
2023/12/03 07:24:24;;;;;;;18.40;11.38;;;2.30;69.60;;;;;;5073127;28;20207;-62
2023/12/03 07:26:51;;;;;;;18.52;11.65;;;2.30;69.70;;;;;;5078873;28;20223;-63
2023/12/03 07:29:19;;;;;;;18.50;11.57;;;2.30;69.50;;;;;;5078787;28;20197;-64
2023/12/03 07:31:46;;;;;;;16.65;11.50;;;2.30;69.50;;;;;;5074740;28;20225;-64
2023/12/03 07:34:14;;;;;;;17.80;11.32;;;2.30;69.30;;;;;;5078942;28;20293;-63
2023/12/03 07:36:41;;;;;;;15.45;10.77;;;2.30;69.30;;;;;;5081293;28;20248;-64
2023/12/03 07:39:08;;;;;;;16.98;11.15;;;2.30;69.90;;;;;;5080761;28;20283;-64
2023/12/03 07:41:35;;;;;;;17.33;11.82;;;2.30;69.80;;;;;;5077269;28;20244;-64
2023/12/03 07:44:02;;;;;;;15.65;11.25;;;2.20;69.70;;;;;;5075149;28;20280;-63
2023/12/03 07:46:28;;;;;;;16.90;11.48;;;2.20;69.80;;;;;;5073040;28;20589;-63
2023/12/03 07:48:56;;;;;;;15.95;10.68;;;2.30;70.70;;;;;;5091283;28;20228;-63
2023/12/03 07:51:24;;;;;;;16.38;11.32;;;2.30;70.10;;;;;;5093252;28;20231;-63
2023/12/03 07:53:51;;;;;;;16.35;11.23;;;2.30;70.10;;;;;;5090578;28;20246;-63
2023/12/03 07:56:18;;;;;;;17.80;11.35;;;2.40;70.20;;;;;;5080334;28;20202;-63
2023/12/03 07:58:45;;;;;;;15.68;11.02;;;2.40;70.10;;;;;;5092923;28;20200;-63
2023/12/03 08:01:12;;;;;;;16.52;11.38;;;2.50;70.10;;;;;;5090510;28;20205;-63
2023/12/03 08:03:39;;;;;;;15.57;11.25;;;2.50;70.00;;;;;;5075933;28;20229;-63
2023/12/03 08:06:06;;;;;;;16.52;11.93;;;2.60;69.70;;;;;;5076016;28;20353;-63
2023/12/03 08:08:34;;;;;;;15.70;11.10;;;2.60;69.50;;;;;;5075488;28;20207;-63
2023/12/03 08:11:01;;;;;;;15.75;11.18;;;2.70;69.70;;;;;;5085730;28;20221;-70
2023/12/03 08:13:28;;;;;;;16.25;11.65;;;2.70;69.60;;;;;;5092187;28;20204;-65
2023/12/03 08:15:55;;;;;;;15.98;11.55;;;2.80;69.80;;;;;;5090367;28;20211;-62
2023/12/03 08:18:22;;;;;;;17.98;11.93;;;2.90;69.70;;;;;;5092292;28;20319;-63
2023/12/03 08:20:49;;;;;;;16.77;11.27;;;3.00;69.80;;;;;;5086332;28;20721;-62
2023/12/03 08:23:15;;;;;;;16.73;11.40;;;3.20;69.30;;;;;;5071166;28;20201;-63
2023/12/03 08:25:44;;;;;;;15.98;11.98;;;3.30;68.90;;;;;;5078745;28;20415;-62
2023/12/03 08:28:10;;;;;;;17.00;11.70;;;3.40;68.40;;;;;;5084843;28;20203;-62
2023/12/03 08:30:38;;;;;;;16.48;11.90;;;3.60;68.20;;;;;;5079480;28;20283;-62
2023/12/03 08:33:05;;;;;;;15.65;11.02;;;3.60;67.30;;;;;;5083797;28;20201;-62
2023/12/03 08:35:32;;;;;;;16.48;11.25;;;3.70;67.90;;;;;;5072088;28;20211;-62
2023/12/03 08:37:58;;;;;;;14.50;10.95;;;3.80;68.10;;;;;;5071309;28;20218;-63
2023/12/03 08:40:25;;;;;;;17.48;12.02;;;3.90;66.80;;;;;;5071673;28;20729;-62
2023/12/03 08:42:54;;;;;;;16.05;11.73;;;4.00;67.60;;;;;;5071089;28;20200;-63
2023/12/03 08:45:21;;;;;;;14.85;11.65;;;4.10;66.60;;;;;;5081719;28;20745;-62
2023/12/03 08:47:47;;;;;;;15.23;10.80;;;4.20;66.70;;;;;;5083333;28;20280;-63
2023/12/03 08:50:14;;;;;;;15.52;11.70;;;4.30;66.10;;;;;;5078773;28;20304;-62
2023/12/03 08:52:41;;;;;;;14.80;11.18;;;4.30;65.70;;;;;;5084225;28;20327;-62
2023/12/03 08:55:09;;;;;;;16.23;11.50;;;4.40;65.60;;;;;;5081429;28;20197;-62
2023/12/03 08:57:35;;;;;;;18.25;12.15;;;4.50;65.30;;;;;;5085143;28;20699;-62
2023/12/03 09:00:08;;;;;;;17.48;11.82;;;4.50;65.10;;;;;;5091518;28;20216;-63
2023/12/03 09:02:34;;;;;;;14.70;11.02;;;4.60;64.80;;;;;;5051120;28;20256;-64
2023/12/03 09:05:01;;;;;;;14.88;11.00;;;4.70;64.70;;;;;;5050921;28;20252;-64
2023/12/03 09:07:30;;;;;;;16.40;11.35;;;4.80;64.70;;;;;;5051469;28;20242;-64
2023/12/03 09:09:57;;;;;;;14.73;11.25;;;4.90;64.30;;;;;;5069059;28;20209;-64
2023/12/03 09:12:26;;;;;;;14.52;11.00;;;5.00;64.00;;;;;;5066064;28;20225;-63
2023/12/03 09:14:53;;;;;;;15.43;11.30;;;5.10;63.90;;;;;;5077299;28;20287;-62
2023/12/03 09:17:21;;;;;;;14.15;10.40;;;5.20;63.50;;;;;;5082315;28;20216;-63
2023/12/03 09:19:48;;;;;;;21.05;12.63;;;5.40;63.40;;;;;;5079632;28;20720;-62
2023/12/03 09:22:16;;;;;;;16.23;11.50;;;5.50;63.50;;;;;;5072985;28;20317;-63
2023/12/03 09:24:43;;;;;;;16.45;11.90;;;5.70;63.20;;;;;;5081111;28;20219;-64
2023/12/03 09:27:10;;;;;;;16.75;11.23;;;5.70;62.40;;;;;;5087790;28;20193;-65
2023/12/03 09:29:37;;;;;;;14.13;11.67;;;5.80;63.20;;;;;;5092138;28;20557;-63
2023/12/03 09:32:04;;;;;;;16.63;11.23;;;5.90;62.10;;;;;;5080235;28;20474;-63
2023/12/03 09:34:34;;;;;;;15.03;11.07;;;6.00;61.50;;;;;;5084953;28;20470;-63
2023/12/03 09:37:02;;;;;;;18.23;11.43;;;6.10;61.80;;;;;;5068562;28;20536;-64
2023/12/03 09:39:29;;;;;;;15.00;11.57;;;6.20;61.60;;;;;;5071459;28;20448;-64
2023/12/03 09:42:01;;;;;;;14.80;11.20;;;6.30;61.00;;;;;;5071350;28;20931;-64
2023/12/03 09:44:35;;;;;;;13.80;11.33;;;6.40;61.30;;;;;;5083441;28;20453;-64
2023/12/03 09:47:03;;;;;;;15.93;11.40;;;6.40;60.90;;;;;;5078591;28;20469;-64
2023/12/03 09:49:30;;;;;;;14.40;11.40;;;6.50;60.90;;;;;;5080360;28;20506;-64
2023/12/03 09:52:00;;;;;;;13.70;10.87;;;6.60;60.30;;;;;;5094094;28;20580;-65
2023/12/03 09:54:27;;;;;;;16.37;11.27;;;6.80;60.50;;;;;;5094436;28;20438;-64
2023/12/03 09:56:57;;;;;;;16.07;10.97;;;6.90;60.30;;;;;;5093893;28;20547;-63
2023/12/03 09:59:24;;;;;;;14.10;10.73;;;6.90;59.30;;;;;;5095043;28;20469;-65
2023/12/03 10:01:52;;;;;;;15.93;11.40;;;6.90;59.00;;;;;;5091818;28;20537;-64
2023/12/03 10:04:19;;;;;;;15.97;11.73;;;6.80;59.00;;;;;;5082265;28;20485;-64
2023/12/03 10:06:49;;;;;;;14.70;11.10;;;7.00;59.60;;;;;;5083696;28;20531;-65
2023/12/03 10:09:19;;;;;;;13.43;10.57;;;7.20;59.10;;;;;;5081350;28;20958;-64
2023/12/03 10:11:54;;;;;;;15.77;12.23;;;7.30;59.10;;;;;;5096348;28;20838;-64
2023/12/03 10:14:21;;;;;;;14.67;11.70;;;7.40;58.40;;;;;;5093679;28;20438;-63
2023/12/03 10:16:49;;;;;;;13.87;11.23;;;7.40;57.50;;;;;;5051655;28;20515;-63
2023/12/03 10:19:23;;;;;;;13.40;10.77;;;7.50;58.30;;;;;;5074526;28;20455;-64
2023/12/03 10:21:50;;;;;;;15.17;11.37;;;7.60;57.80;;;;;;5072489;28;20829;-64
2023/12/03 10:24:19;;;;;;;13.37;10.23;;;7.50;57.90;;;;;;5092820;28;20565;-63
2023/12/03 10:26:53;;;;;;;14.43;11.27;;;7.60;57.70;;;;;;5092173;28;20930;-64
2023/12/03 10:29:23;;;;;;;13.77;10.93;;;7.60;57.20;;;;;;5092434;28;20514;-63
2023/12/03 10:31:50;;;;;;;16.00;12.00;;;7.50;57.30;;;;;;5092332;28;20492;-64
2023/12/03 10:34:17;;;;;;;14.77;11.53;;;7.60;58.50;;;;;;5073186;28;20443;-63
2023/12/03 10:36:44;;;;;;;14.93;10.17;;;7.70;57.60;;;;;;5072350;28;20506;-64
2023/12/03 10:39:17;;;;;;;14.23;11.17;;;7.80;57.60;;;;;;5037587;28;20524;-65
2023/12/03 10:41:46;;;;;;;14.23;11.30;;;7.90;57.70;;;;;;5072609;28;20444;-63
2023/12/03 10:44:17;;;;;;;14.80;10.80;;;8.00;57.10;;;;;;5054024;28;20475;-64
2023/12/03 10:46:45;;;;;;;16.13;11.60;;;8.00;57.00;;;;;;5072761;28;20463;-64
2023/12/03 10:49:13;;;;;;;14.33;10.37;;;8.00;57.20;;;;;;5075533;28;20435;-64
2023/12/03 10:51:42;;;;;;;12.70;9.73;;;8.10;57.00;;;;;;5073249;28;20978;-64
2023/12/03 10:54:09;;;;;;;13.90;10.60;;;8.30;57.10;;;;;;5089168;28;20443;-64
2023/12/03 10:56:36;;;;;;;15.53;11.47;;;8.30;56.10;;;;;;5074382;28;20482;-64
2023/12/03 10:59:09;;;;;;;14.97;11.13;;;8.30;56.20;;;;;;5091791;28;20447;-63
2023/12/03 11:01:41;;;;;;;15.03;10.93;;;8.50;56.90;;;;;;5091962;28;20529;-64
2023/12/03 11:04:16;;;;;;;14.70;10.80;;;8.70;56.60;;;;;;5071806;28;20442;-63
2023/12/03 11:06:44;;;;;;;13.63;10.87;;;8.90;55.20;;;;;;5073930;28;20481;-64
2023/12/03 11:09:11;;;;;;;14.00;11.77;;;8.90;55.60;;;;;;5092703;28;20453;-64
2023/12/03 11:11:40;;;;;;;13.67;10.73;;;9.00;55.10;;;;;;5091864;28;20512;-64
2023/12/03 11:14:08;;;;;;;13.37;10.70;;;9.10;55.70;;;;;;5074110;28;20525;-64
2023/12/03 11:16:48;;;;;;;12.03;9.53;;;9.30;55.20;;;;;;5071399;28;20448;-64
2023/12/03 11:19:18;;;;;;;11.97;9.83;;;9.50;54.10;;;;;;5071102;28;20446;-63
2023/12/03 11:21:57;;;;;;;13.07;10.23;;;9.40;52.70;;;;;;5070723;28;20431;-63
2023/12/03 11:24:53;;;;;;;12.77;9.97;;;9.40;53.90;;;;;;5070773;28;20435;-64
2023/12/03 11:27:24;;;;;;;12.17;9.60;;;9.70;54.10;;;;;;5071291;28;20448;-64
2023/12/03 11:29:55;;;;;;;12.57;10.03;;;9.90;53.90;;;;;;5071194;28;20462;-64
2023/12/03 11:32:24;;;;;;;11.53;9.43;;;10.10;52.50;;;;;;5070885;28;20491;-64
2023/12/03 11:34:59;;;;;;;13.07;9.37;;;10.40;52.00;;;;;;5071208;28;20954;-64
2023/12/03 11:37:27;;;;;;;13.60;9.90;;;10.70;51.40;;;;;;5071223;28;20439;-64
2023/12/03 11:39:57;;;;;;;14.20;11.40;;;10.90;51.30;;;;;;5074213;28;20439;-65
2023/12/03 11:42:25;;;;;;;12.53;10.13;;;11.30;51.20;;;;;;5073510;28;20443;-65
2023/12/03 11:45:17;;;;;;;13.00;10.33;;;11.50;49.70;;;;;;5091651;28;20932;-64
2023/12/03 11:47:47;;;;;;;11.93;9.93;;;11.60;47.80;;;;;;5089882;28;20450;-63
2023/12/03 11:50:15;;;;;;;13.67;11.07;;;11.70;49.40;;;;;;5090490;28;20439;-64
2023/12/03 11:52:43;;;;;;;11.67;9.80;;;12.10;48.90;;;;;;5090524;28;20478;-64
2023/12/03 11:55:16;;;;;;;11.57;10.37;;;12.50;48.30;;;;;;5090923;28;20533;-65
2023/12/03 11:57:44;;;;;;;12.43;10.10;;;12.80;47.30;;;;;;5090678;28;20938;-65
2023/12/03 12:00:13;;;;;;;11.80;9.97;;;12.90;46.90;;;;;;5089974;28;20549;-64
2023/12/03 12:02:40;;;;;;;12.53;9.97;;;12.50;46.70;;;;;;5089061;28;20445;-64
2023/12/03 12:05:08;;;;;;;13.47;9.63;;;12.50;46.90;;;;;;5089455;28;20529;-62
2023/12/03 12:07:35;;;;;;;11.80;9.53;;;13.00;46.30;;;;;;5090032;28;20446;-65
2023/12/03 12:10:02;;;;;;;15.63;12.47;;;13.90;45.60;;;;;;5091494;28;20462;-64
2023/12/03 12:12:29;;;;;;;14.17;11.83;;;15.10;44.70;;;;;;5088854;28;20510;-64
2023/12/03 12:14:56;;;;;;;10.57;9.47;;;16.50;43.10;;;;;;5070311;28;20951;-65
2023/12/03 12:17:25;;;;;;;12.70;10.33;;;17.70;40.60;;;;;;5072659;28;20450;-64
2023/12/03 12:19:55;;;;;;;11.67;10.30;;;19.20;39.50;;;;;;5071018;28;20487;-64
2023/12/03 12:22:22;;;;;;;10.27;9.17;;;20.50;37.70;;;;;;5063309;28;20444;-65
2023/12/03 12:24:49;;;;;;;13.00;10.80;;;19.70;36.70;;;;;;5051972;28;20300;-64
2023/12/03 12:27:17;;;;;;;12.17;10.60;;;18.70;37.10;;;;;;5055962;28;20504;-64
2023/12/03 12:29:45;;;;;;;10.97;9.87;;;18.40;37.80;;;;;;5055263;28;20214;-65
2023/12/03 12:32:12;;;;;;;11.43;10.27;;;20.00;37.30;;;;;;5049100;28;20518;-65
2023/12/03 12:34:40;;;;;;;11.10;10.00;;;21.40;36.00;;;;;;5087410;28;20203;-65
2023/12/03 12:37:08;;;;;;;12.33;11.13;;;22.80;34.40;;;;;;5089409;28;20668;-65
2023/12/03 12:39:36;;;;;;;11.53;10.40;;;23.70;33.30;;;;;;5090003;28;20200;-65